createdAt,value
2022-11-28T00:01:37.977Z,92.50
2022-11-28T00:04:07.674Z,92.50
2022-11-28T00:06:43.663Z,92.50
2022-11-28T00:09:17.571Z,92.50
2022-11-28T00:11:53.764Z,92.50
2022-11-28T00:14:28.680Z,92.50
2022-11-28T00:17:08.414Z,92.50
2022-11-28T00:19:40.580Z,92.50
2022-11-28T00:22:10.335Z,92.50
2022-11-28T00:24:47.238Z,92.50
2022-11-28T00:27:18.559Z,92.50
2022-11-28T00:30:20.019Z,92.60
2022-11-28T00:32:47.149Z,92.50
2022-11-28T00:35:16.954Z,92.50
2022-11-28T00:37:45.177Z,92.60
2022-11-28T00:40:16.983Z,92.60
2022-11-28T00:42:51.348Z,92.60
2022-11-28T00:45:46.483Z,92.60
2022-11-28T00:48:22.218Z,92.60
2022-11-28T00:50:55.263Z,92.60
2022-11-28T00:53:46.713Z,92.60
2022-11-28T00:56:22.311Z,92.60
2022-11-28T00:58:54.693Z,92.50
2022-11-28T01:01:47.450Z,92.50
2022-11-28T01:04:25.025Z,92.50
2022-11-28T01:07:04.486Z,92.50
2022-11-28T01:09:38.730Z,92.60
2022-11-28T01:12:10.002Z,92.60
2022-11-28T01:14:48.952Z,92.60
2022-11-28T01:17:16.085Z,92.60
2022-11-28T01:19:49.611Z,92.50
2022-11-28T01:22:18.524Z,92.60
2022-11-28T01:24:55.421Z,92.50
2022-11-28T01:27:24.933Z,92.50
2022-11-28T01:29:54.544Z,92.50
2022-11-28T01:32:29.092Z,92.50
2022-11-28T01:34:58.566Z,92.50
2022-11-28T01:40:35.722Z,92.50
2022-11-28T01:43:04.389Z,92.50
2022-11-28T01:45:34.774Z,92.50
2022-11-28T01:48:03.321Z,92.50
2022-11-28T01:50:43.075Z,92.50
2022-11-28T01:53:16.715Z,92.50
2022-11-28T01:55:58.272Z,92.50
2022-11-28T01:58:28.279Z,92.50
2022-11-28T02:01:02.339Z,92.50
2022-11-28T02:03:36.596Z,92.60
2022-11-28T02:06:15.573Z,92.60
2022-11-28T02:08:55.441Z,92.60
2022-11-28T02:12:14.594Z,92.60
2022-11-28T02:14:53.150Z,92.60
2022-11-28T02:17:44.613Z,92.60
2022-11-28T02:20:25.101Z,92.60
2022-11-28T02:23:24.561Z,92.50
2022-11-28T02:26:18.828Z,92.60
2022-11-28T02:29:20.231Z,92.60
2022-11-28T02:32:03.169Z,92.60
2022-11-28T02:34:58.068Z,92.60
2022-11-28T02:37:50.378Z,92.60
2022-11-28T02:40:32.823Z,92.50
2022-11-28T02:43:19.024Z,92.50
2022-11-28T02:46:13.846Z,92.50
2022-11-28T02:49:04.922Z,92.50
2022-11-28T02:51:46.813Z,92.40
2022-11-28T02:54:24.662Z,92.50
2022-11-28T02:57:06.163Z,92.50
2022-11-28T03:00:50.616Z,92.40
2022-11-28T03:07:41.388Z,92.50
2022-11-28T03:10:41.712Z,92.40
2022-11-28T03:13:56.610Z,92.40
2022-11-28T03:16:51.254Z,92.50
2022-11-28T03:19:29.061Z,92.50
2022-11-28T03:22:08.081Z,92.50
2022-11-28T03:24:45.909Z,92.40
2022-11-28T03:27:20.151Z,92.40
2022-11-28T03:29:55.566Z,92.50
2022-11-28T03:32:31.150Z,92.50
2022-11-28T03:35:05.445Z,92.50
2022-11-28T03:37:40.550Z,92.40
2022-11-28T03:40:20.738Z,92.40
2022-11-28T03:43:14.307Z,92.40
2022-11-28T03:45:47.774Z,92.40
2022-11-28T03:51:27.434Z,92.40
2022-11-28T03:54:07.561Z,92.30
2022-11-28T03:56:48.841Z,92.30
2022-11-28T03:59:26.261Z,92.30
2022-11-28T04:02:01.178Z,92.30
2022-11-28T04:05:04.300Z,92.30
2022-11-28T04:07:54.573Z,92.30
2022-11-28T04:10:37.412Z,92.30
2022-11-28T04:13:37.593Z,92.30
2022-11-28T04:16:06.189Z,92.30
2022-11-28T04:19:20.553Z,92.30
2022-11-28T04:30:35.107Z,92.30
2022-11-28T04:33:05.268Z,92.20
2022-11-28T04:35:43.145Z,92.30
2022-11-28T04:38:33.395Z,92.30
2022-11-28T04:41:13.358Z,92.20
2022-11-28T04:43:50.222Z,92.30
2022-11-28T04:46:41.686Z,92.30
2022-11-28T04:49:17.845Z,92.30
2022-11-28T04:52:04.978Z,92.30
2022-11-28T04:54:56.836Z,92.30
2022-11-28T04:57:41.164Z,92.30
2022-11-28T05:00:13.495Z,92.20
2022-11-28T05:02:46.343Z,92.20
2022-11-28T05:05:43.492Z,92.20
2022-11-28T05:08:21.465Z,92.20
2022-11-28T05:10:53.896Z,92.30
2022-11-28T05:13:24.651Z,92.20
2022-11-28T05:15:56.416Z,92.30
2022-11-28T05:18:27.157Z,92.30
2022-11-28T05:21:07.088Z,92.30
2022-11-28T05:23:34.393Z,92.30
2022-11-28T05:26:13.237Z,92.30
2022-11-28T05:28:49.818Z,92.30
2022-11-28T05:31:29.486Z,92.30
2022-11-28T05:33:56.950Z,92.30
2022-11-28T05:36:26.827Z,92.40
2022-11-28T05:38:59.408Z,92.40
2022-11-28T05:41:32.904Z,92.40
2022-11-28T05:44:12.848Z,92.40
2022-11-28T05:46:46.196Z,92.40
2022-11-28T05:49:22.595Z,92.40
2022-11-28T05:51:55.715Z,92.40
2022-11-28T05:54:34.824Z,92.40
2022-11-28T05:57:07.411Z,92.30
2022-11-28T05:59:39.966Z,92.40
2022-11-28T06:02:09.767Z,92.40
2022-11-28T06:04:36.849Z,92.30
2022-11-28T06:07:09.608Z,92.30
2022-11-28T06:09:42.311Z,92.30
2022-11-28T06:12:12.252Z,92.40
2022-11-28T06:14:49.594Z,92.40
2022-11-28T06:17:19.070Z,92.30
2022-11-28T06:19:51.266Z,92.30
2022-11-28T06:22:28.581Z,92.30
2022-11-28T06:25:08.919Z,92.30
2022-11-28T06:27:47.781Z,92.30
2022-11-28T06:30:15.094Z,92.30
2022-11-28T06:32:48.149Z,92.30
2022-11-28T06:35:15.214Z,92.30
2022-11-28T06:37:46.421Z,92.30
2022-11-28T06:40:14.135Z,92.30
2022-11-28T06:42:43.377Z,92.40
2022-11-28T06:45:13.410Z,92.40
2022-11-28T06:47:40.633Z,92.40
2022-11-28T06:50:09.827Z,92.40
2022-11-28T06:52:47.454Z,92.40
2022-11-28T06:55:16.618Z,92.40
2022-11-28T06:57:46.176Z,92.40
2022-11-28T07:00:28.552Z,92.40
2022-11-28T07:02:59.020Z,92.30
2022-11-28T07:05:43.678Z,92.30
2022-11-28T07:08:26.151Z,92.30
2022-11-28T07:10:54.395Z,92.30
2022-11-28T07:13:31.310Z,92.30
2022-11-28T07:16:01.311Z,92.30
2022-11-28T07:18:31.113Z,92.30
2022-11-28T07:21:06.009Z,92.30
2022-11-28T07:23:33.319Z,92.30
2022-11-28T07:26:17.343Z,92.30
2022-11-28T07:28:50.638Z,92.30
2022-11-28T07:31:28.981Z,92.30
2022-11-28T07:33:56.152Z,92.30
2022-11-28T07:36:57.154Z,92.30
2022-11-28T07:39:37.793Z,92.30
2022-11-28T07:42:22.120Z,92.30
2022-11-28T07:44:53.824Z,92.30
2022-11-28T07:47:23.432Z,92.30
2022-11-28T07:49:55.423Z,92.30
2022-11-28T07:52:27.964Z,92.30
2022-11-28T07:55:08.299Z,92.30
2022-11-28T07:57:42.836Z,92.30
2022-11-28T08:00:21.131Z,92.30
2022-11-28T08:02:48.769Z,92.30
2022-11-28T08:05:26.111Z,92.30
2022-11-28T08:08:08.699Z,92.30
2022-11-28T08:10:46.171Z,92.30
2022-11-28T08:13:25.236Z,92.30
2022-11-28T08:15:52.302Z,92.30
2022-11-28T08:18:23.564Z,92.30
2022-11-28T08:20:57.272Z,92.30
2022-11-28T08:23:28.016Z,92.30
2022-11-28T08:25:54.979Z,92.30
2022-11-28T08:28:25.434Z,92.40
2022-11-28T08:30:52.552Z,92.40
2022-11-28T08:33:19.824Z,92.40
2022-11-28T08:36:05.532Z,92.40
2022-11-28T08:39:16.652Z,92.30
2022-11-28T08:42:14.408Z,92.40
2022-11-28T08:52:12.487Z,92.30
2022-11-28T08:54:39.450Z,92.30
2022-11-28T08:57:18.848Z,92.30
2022-11-28T08:59:48.883Z,92.30
2022-11-28T09:02:38.947Z,92.30
2022-11-28T09:05:06.814Z,92.50
2022-11-28T09:07:44.374Z,92.30
2022-11-28T09:10:25.112Z,92.30
2022-11-28T09:13:04.435Z,92.20
2022-11-28T09:15:35.920Z,92.20
2022-11-28T09:18:16.962Z,92.20
2022-11-28T09:20:50.725Z,92.20
2022-11-28T09:23:39.687Z,92.20
2022-11-28T09:26:22.052Z,92.20
2022-11-28T09:28:59.673Z,92.40
2022-11-28T09:31:30.501Z,92.20
2022-11-28T09:33:59.961Z,92.20
2022-11-28T09:36:56.489Z,92.20
2022-11-28T09:39:43.972Z,92.30
2022-11-28T09:42:45.487Z,92.30
2022-11-28T09:45:45.859Z,92.30
2022-11-28T09:48:26.887Z,92.30
2022-11-28T09:51:05.605Z,92.30
2022-11-28T09:54:05.105Z,92.30
2022-11-28T09:56:33.882Z,92.30
2022-11-28T09:59:11.978Z,92.30
2022-11-28T10:01:46.640Z,92.30
2022-11-28T10:08:07.493Z,92.30
2022-11-28T10:11:01.168Z,92.30
2022-11-28T10:14:07.802Z,92.30
2022-11-28T10:17:23.375Z,92.30
2022-11-28T10:20:04.944Z,92.30
2022-11-28T10:22:43.464Z,92.30
2022-11-28T10:25:43.280Z,92.30
2022-11-28T10:31:52.998Z,92.30
2022-11-28T10:35:06.812Z,92.30
2022-11-28T10:37:47.532Z,92.50
2022-11-28T10:40:29.053Z,92.30
2022-11-28T10:43:33.667Z,92.30
2022-11-28T10:46:35.726Z,92.30
2022-11-28T10:49:36.384Z,92.30
2022-11-28T10:55:54.501Z,92.30
2022-11-28T10:58:26.739Z,92.30
2022-11-28T11:01:10.235Z,92.30
2022-11-28T11:03:37.384Z,92.30
2022-11-28T11:06:24.277Z,92.30
2022-11-28T11:09:13.459Z,92.40
2022-11-28T11:11:53.046Z,92.40
2022-11-28T11:14:51.117Z,92.40
2022-11-28T11:19:02.022Z,92.60
2022-11-28T11:21:57.072Z,92.40
2022-11-28T11:25:26.238Z,92.40
2022-11-28T11:29:01.877Z,92.40
2022-11-28T11:32:01.195Z,92.40
2022-11-28T11:34:55.016Z,92.30
2022-11-28T11:39:30.263Z,92.30
2022-11-28T11:42:16.858Z,92.20
2022-11-28T11:45:27.437Z,92.10
2022-11-28T11:48:40.011Z,92.10
2022-11-28T11:51:42.994Z,92.10
2022-11-28T11:54:39.048Z,92.10
2022-11-28T11:57:34.962Z,92.10
2022-11-28T12:00:47.012Z,92.20
2022-11-28T12:03:47.674Z,92.20
2022-11-28T12:09:21.363Z,92.10
2022-11-28T12:12:05.330Z,92.00
2022-11-28T12:14:44.504Z,92.20
2022-11-28T12:17:59.306Z,92.00
2022-11-28T12:20:55.592Z,92.00
2022-11-28T12:23:58.994Z,92.00
2022-11-28T12:27:40.040Z,91.90
2022-11-28T12:37:10.635Z,91.90
2022-11-28T12:40:10.406Z,91.80
2022-11-28T12:43:47.454Z,91.80
2022-11-28T12:45:45.875Z,91.80
2022-11-28T12:48:23.293Z,91.90
2022-11-28T12:51:30.307Z,91.90
2022-11-28T12:54:41.536Z,91.90
2022-11-28T12:57:20.607Z,91.90
2022-11-28T13:00:31.055Z,91.80
2022-11-28T13:03:28.872Z,91.80
2022-11-28T13:06:21.427Z,91.80
2022-11-28T13:09:18.761Z,91.90
2022-11-28T13:12:12.698Z,91.80
2022-11-28T13:14:57.902Z,91.80
2022-11-28T13:17:36.816Z,91.80
2022-11-28T13:20:15.923Z,91.80
2022-11-28T13:23:37.403Z,91.80
2022-11-28T13:26:44.777Z,91.80
2022-11-28T13:29:24.234Z,91.80
2022-11-28T13:32:02.213Z,91.80
2022-11-28T13:34:35.863Z,91.80
2022-11-28T13:38:36.116Z,91.70
2022-11-28T13:49:52.496Z,91.60
2022-11-28T13:52:39.278Z,91.60
2022-11-28T13:55:48.211Z,91.60
2022-11-28T13:58:59.568Z,91.60
2022-11-28T14:43:38.908Z,91.70
2022-11-28T15:01:52.114Z,91.60
2022-11-28T15:09:09.766Z,91.60
2022-11-28T15:15:18.904Z,91.60
2022-11-28T16:12:02.460Z,92.00
2022-11-28T16:14:36.765Z,92.10
2022-11-28T16:20:30.379Z,92.10
2022-11-28T16:34:21.079Z,92.10
2022-11-28T16:37:19.296Z,92.10
2022-11-28T17:00:33.493Z,92.20
2022-11-28T17:03:00.481Z,92.20
2022-11-28T17:05:27.568Z,92.20
2022-11-28T17:07:54.906Z,92.20
2022-11-28T17:10:27.768Z,92.30
2022-11-28T17:35:20.431Z,92.40
2022-11-28T17:38:09.168Z,92.40
2022-11-28T17:40:45.024Z,92.50
2022-11-28T17:43:41.570Z,92.60
2022-11-28T17:46:11.151Z,92.50
2022-11-28T17:49:15.349Z,92.60
2022-11-28T17:55:29.151Z,92.60
2022-11-28T17:58:24.048Z,92.60
2022-11-28T18:01:08.798Z,92.60
2022-11-28T18:03:41.436Z,92.50
2022-11-28T18:07:10.850Z,92.50
2022-11-28T18:09:44.959Z,92.40
2022-11-28T18:14:02.729Z,92.40
2022-11-28T18:15:42.798Z,92.40
2022-11-28T18:18:10.638Z,92.40
2022-11-28T18:21:07.475Z,92.50
2022-11-28T18:24:16.025Z,92.40
2022-11-28T18:27:08.565Z,92.40
2022-11-28T18:29:34.474Z,92.40
2022-11-28T18:32:02.205Z,92.40
2022-11-28T18:34:29.462Z,92.40
2022-11-28T18:37:00.971Z,92.40
2022-11-28T18:39:49.280Z,92.40
2022-11-28T19:13:07.210Z,92.10
2022-11-28T20:00:16.221Z,92.20
2022-11-28T20:07:38.229Z,92.20
2022-11-28T20:10:08.124Z,92.20
